Аэропорт: Хомутово. Южно-Сахалинск

ICAO: UHSS

METAR:
2019-07-23 18:00:00
UHSS 231800Z 14003MPS 9999 BKN027CB 18/17 Q1005 R01/290060 NOSIG RMK MT OBSC QFE752/1003
METAR:
2019-07-23 16:55:00
TAF UHSS 231655Z 2318/2424 16003MPS 9999 -SHRA BKN004 BKN015CB BECMG 2410/2413 02007MPS